createdAt,value
2018-04-06T00:01:55.509Z,21.70
2018-04-06T00:06:01.197Z,21.60
2018-04-06T00:10:07.878Z,21.70
2018-04-06T00:14:14.583Z,21.70
2018-04-06T00:18:20.519Z,21.70
2018-04-06T00:22:26.225Z,21.70
2018-04-06T00:26:32.151Z,21.90
2018-04-06T00:30:38.245Z,22.20
2018-04-06T00:34:44.682Z,22.00
2018-04-06T00:38:51.137Z,21.90
2018-04-06T00:42:58.552Z,21.80
2018-04-06T00:47:04.498Z,21.80
2018-04-06T00:51:11.027Z,21.50
2018-04-06T00:55:17.767Z,21.30
2018-04-06T00:59:24.643Z,21.10
2018-04-06T01:03:32.360Z,21.10
2018-04-06T01:07:38.244Z,21.00
2018-04-06T01:11:44.240Z,21.00
2018-04-06T01:15:50.210Z,20.90
2018-04-06T01:19:55.990Z,20.90
2018-04-06T01:24:01.945Z,20.80
2018-04-06T01:28:07.795Z,20.70
2018-04-06T01:32:13.773Z,20.60
2018-04-06T01:36:19.611Z,20.40
2018-04-06T01:40:25.384Z,20.20
2018-04-06T01:44:32.010Z,20.20
2018-04-06T01:48:37.899Z,19.80
2018-04-06T01:52:43.653Z,19.70
2018-04-06T01:56:50.435Z,19.50
2018-04-06T02:00:58.036Z,19.40
2018-04-06T02:05:04.642Z,19.30
2018-04-06T02:09:12.589Z,19.10
2018-04-06T02:13:18.464Z,19.10
2018-04-06T02:17:25.429Z,18.70
2018-04-06T02:21:31.186Z,18.70
2018-04-06T02:25:36.935Z,18.60
2018-04-06T02:33:53.172Z,18.50
2018-04-06T02:38:00.130Z,18.30
2018-04-06T02:42:06.902Z,18.30
2018-04-06T02:46:12.397Z,18.20
2018-04-06T02:50:18.066Z,18.10
2018-04-06T02:54:28.006Z,18.00
2018-04-06T02:58:33.892Z,18.00
2018-04-06T03:02:39.696Z,18.00
2018-04-06T03:06:46.500Z,17.90
2018-04-06T03:10:52.362Z,17.80
2018-04-06T03:14:58.088Z,17.70
2018-04-06T03:19:03.792Z,17.70
2018-04-06T03:23:09.817Z,17.60
2018-04-06T03:27:16.176Z,17.50
2018-04-06T03:31:22.637Z,17.50
2018-04-06T03:35:29.372Z,17.40
2018-04-06T03:39:35.400Z,17.40
2018-04-06T03:43:41.887Z,17.30
2018-04-06T03:47:49.298Z,17.10
2018-04-06T03:51:54.969Z,17.20
2018-04-06T03:56:00.840Z,17.10
2018-04-06T04:00:06.881Z,17.10
2018-04-06T04:04:13.586Z,16.90
2018-04-06T04:08:21.234Z,16.90
2018-04-06T04:12:27.883Z,16.90
2018-04-06T04:16:34.187Z,16.90
2018-04-06T04:20:40.545Z,16.80
2018-04-06T04:24:47.758Z,16.80
2018-04-06T04:28:54.026Z,16.70
2018-04-06T04:33:00.112Z,16.70
2018-04-06T04:37:05.786Z,16.70
2018-04-06T04:41:11.594Z,16.70
2018-04-06T04:45:17.315Z,16.60
2018-04-06T04:49:23.205Z,16.60
2018-04-06T04:53:29.153Z,16.50
2018-04-06T04:57:35.776Z,16.50
2018-04-06T05:01:42.188Z,16.40
2018-04-06T05:05:48.253Z,16.40
2018-04-06T05:09:56.582Z,16.30
2018-04-06T05:14:02.709Z,16.30
2018-04-06T05:18:09.391Z,16.20
2018-04-06T05:22:15.247Z,16.20
2018-04-06T05:26:21.019Z,16.20
2018-04-06T05:30:26.792Z,16.20
2018-04-06T05:34:32.676Z,16.20
2018-04-06T05:38:39.889Z,16.10
2018-04-06T05:42:47.072Z,16.10
2018-04-06T05:46:52.775Z,16.10
2018-04-06T05:51:00.461Z,16.00
2018-04-06T05:55:06.367Z,16.00
2018-04-06T05:59:11.958Z,16.00
2018-04-06T06:03:17.886Z,16.00
2018-04-06T06:07:23.572Z,16.00
2018-04-06T06:11:30.635Z,15.90
2018-04-06T06:15:36.374Z,15.90
2018-04-06T06:19:42.303Z,15.90
2018-04-06T06:23:48.013Z,15.80
2018-04-06T06:27:53.801Z,15.80
2018-04-06T06:31:59.592Z,15.60
2018-04-06T06:36:05.687Z,15.60
2018-04-06T06:40:11.549Z,15.50
2018-04-06T06:44:17.271Z,15.50
2018-04-06T06:48:23.002Z,15.50
2018-04-06T06:52:28.777Z,15.50
2018-04-06T06:56:34.645Z,15.50
2018-04-06T07:00:40.626Z,15.50
2018-04-06T07:04:46.520Z,15.50
2018-04-06T07:08:53.033Z,15.50
2018-04-06T07:13:00.320Z,15.50
2018-04-06T07:17:06.268Z,15.50
2018-04-06T07:21:12.335Z,15.50
2018-04-06T07:25:18.388Z,15.40
2018-04-06T07:29:24.087Z,15.40
2018-04-06T07:33:30.151Z,15.40
2018-04-06T07:37:35.749Z,15.40
2018-04-06T07:41:41.644Z,15.40
2018-04-06T07:45:47.273Z,15.40
2018-04-06T07:49:53.122Z,15.30
2018-04-06T07:54:00.042Z,15.20
2018-04-06T07:58:06.082Z,15.20
2018-04-06T08:02:11.985Z,15.20
2018-04-06T08:06:17.602Z,15.20
2018-04-06T08:10:23.563Z,15.20
2018-04-06T08:14:31.044Z,15.20
2018-04-06T08:18:36.606Z,15.10
2018-04-06T08:22:42.568Z,15.10
2018-04-06T08:26:48.402Z,15.10
2018-04-06T08:30:54.311Z,15.10
2018-04-06T08:35:00.212Z,15.10
2018-04-06T08:39:06.428Z,15.10
2018-04-06T08:43:12.059Z,15.20
2018-04-06T08:47:17.860Z,15.20
2018-04-06T08:51:24.386Z,15.20
2018-04-06T08:55:30.308Z,15.10
2018-04-06T08:59:37.069Z,15.20
2018-04-06T09:03:42.984Z,15.20
2018-04-06T09:07:49.246Z,15.20
2018-04-06T09:11:56.022Z,15.20
2018-04-06T09:16:03.274Z,15.20
2018-04-06T09:20:09.168Z,15.20
2018-04-06T09:24:15.027Z,15.20
2018-04-06T09:28:21.384Z,15.00
2018-04-06T09:32:27.101Z,14.90
2018-04-06T09:36:33.767Z,14.70
2018-04-06T09:40:40.100Z,14.70
2018-04-06T09:44:45.810Z,14.70
2018-04-06T09:48:52.590Z,14.60
2018-04-06T09:52:58.223Z,14.60
2018-04-06T09:57:04.848Z,14.60
2018-04-06T10:01:11.190Z,14.50
2018-04-06T10:05:17.892Z,14.50
2018-04-06T10:09:24.085Z,14.50
2018-04-06T10:13:30.766Z,14.40
2018-04-06T10:17:38.475Z,14.40
2018-04-06T10:21:44.051Z,14.30
2018-04-06T10:25:49.743Z,14.30
2018-04-06T10:29:56.305Z,14.20
2018-04-06T10:34:02.167Z,14.20
2018-04-06T10:38:08.347Z,14.20
2018-04-06T10:42:14.200Z,14.20
2018-04-06T10:46:20.437Z,14.20
2018-04-06T10:50:26.717Z,14.10
2018-04-06T10:54:32.492Z,14.00
2018-04-06T10:58:38.102Z,14.00
2018-04-06T11:02:44.788Z,13.90
2018-04-06T11:06:50.537Z,13.90
2018-04-06T11:10:56.320Z,13.80
2018-04-06T11:15:03.015Z,13.80
2018-04-06T11:19:10.670Z,13.70
2018-04-06T11:23:16.249Z,13.70
2018-04-06T11:27:21.725Z,13.60
2018-04-06T11:31:27.435Z,13.60
2018-04-06T11:35:33.417Z,13.70
2018-04-06T11:39:39.089Z,13.60
2018-04-06T11:43:46.061Z,13.50
2018-04-06T11:47:51.862Z,13.50
2018-04-06T11:51:58.392Z,13.60
2018-04-06T11:56:04.691Z,13.70
2018-04-06T12:00:11.208Z,13.60
2018-04-06T12:04:17.303Z,13.60
2018-04-06T12:08:23.199Z,13.60
2018-04-06T12:12:28.812Z,13.50
2018-04-06T12:16:34.704Z,13.40
2018-04-06T12:20:42.050Z,13.40
2018-04-06T12:24:47.689Z,13.40
2018-04-06T12:28:53.698Z,13.40
2018-04-06T12:32:59.223Z,13.30
2018-04-06T12:37:06.063Z,13.30
2018-04-06T12:41:11.867Z,13.30
2018-04-06T12:45:17.558Z,13.30
2018-04-06T12:49:23.380Z,13.20
2018-04-06T12:53:29.223Z,13.10
2018-04-06T12:57:34.952Z,13.10
2018-04-06T13:01:40.826Z,13.10
2018-04-06T13:05:46.762Z,13.00
2018-04-06T13:09:53.064Z,13.00
2018-04-06T13:13:58.557Z,12.90
2018-04-06T13:18:04.494Z,12.90
2018-04-06T13:22:11.001Z,12.90
2018-04-06T13:26:16.903Z,12.90
2018-04-06T13:30:22.714Z,12.90
2018-04-06T13:34:29.392Z,12.90
2018-04-06T13:38:35.196Z,12.90
2018-04-06T13:42:41.797Z,12.90
2018-04-06T13:46:47.734Z,12.90
2018-04-06T13:50:53.442Z,12.90
2018-04-06T13:54:59.081Z,13.00
2018-04-06T13:59:05.404Z,13.10
2018-04-06T14:03:11.889Z,13.20
2018-04-06T14:07:17.981Z,13.30
2018-04-06T14:11:24.793Z,13.40
2018-04-06T14:15:31.359Z,13.60
2018-04-06T14:19:37.068Z,13.50
2018-04-06T14:23:43.552Z,13.60
2018-04-06T14:27:49.516Z,13.80
2018-04-06T14:31:55.429Z,13.90
2018-04-06T14:36:01.240Z,14.00
2018-04-06T14:40:07.629Z,14.30
2018-04-06T14:44:13.346Z,14.40
2018-04-06T14:48:18.945Z,14.60
2018-04-06T14:52:24.685Z,14.80
2018-04-06T14:56:30.628Z,15.00
2018-04-06T15:00:36.447Z,15.20
2018-04-06T15:04:42.444Z,15.40
2018-04-06T15:08:48.866Z,15.40
2018-04-06T15:12:54.914Z,15.40
2018-04-06T15:17:00.781Z,15.30
2018-04-06T15:21:07.470Z,15.60
2018-04-06T15:25:14.515Z,15.60
2018-04-06T15:29:20.444Z,15.50
2018-04-06T15:33:26.171Z,15.70
2018-04-06T15:37:31.970Z,15.90
2018-04-06T15:41:38.053Z,16.00
2018-04-06T15:45:43.998Z,16.40
2018-04-06T15:49:49.739Z,16.30
2018-04-06T15:53:55.475Z,16.70
2018-04-06T15:58:02.260Z,17.20
2018-04-06T16:02:08.482Z,17.20
2018-04-06T16:06:14.760Z,17.40
2018-04-06T16:10:21.237Z,17.50
2018-04-06T16:14:27.958Z,17.50
2018-04-06T16:18:34.319Z,17.90
2018-04-06T16:22:40.509Z,17.90
2018-04-06T16:26:48.494Z,18.10
2018-04-06T16:30:54.261Z,18.10
2018-04-06T16:35:00.030Z,18.30
2018-04-06T16:39:07.553Z,18.70
2018-04-06T16:43:14.168Z,18.20
2018-04-06T16:47:20.876Z,18.40
2018-04-06T16:51:26.657Z,18.40
2018-04-06T16:55:32.304Z,18.80
2018-04-06T16:59:38.056Z,19.30
2018-04-06T17:03:43.785Z,19.40
2018-04-06T17:07:49.761Z,19.50
2018-04-06T17:11:55.488Z,19.70
2018-04-06T17:16:01.346Z,19.40
2018-04-06T17:20:07.926Z,20.00
2018-04-06T17:24:14.740Z,19.90
2018-04-06T17:28:21.701Z,19.90
2018-04-06T17:32:27.744Z,20.00
2018-04-06T17:36:33.837Z,20.20
2018-04-06T17:40:40.032Z,19.90
2018-04-06T17:44:45.836Z,20.10
2018-04-06T17:48:51.829Z,20.40
2018-04-06T17:52:57.514Z,20.50
2018-04-06T17:57:03.333Z,20.70
2018-04-06T18:01:09.239Z,20.90
2018-04-06T18:05:16.218Z,21.00
2018-04-06T18:09:22.394Z,20.90
2018-04-06T18:13:29.079Z,21.20
2018-04-06T18:17:34.846Z,21.20
2018-04-06T18:21:40.706Z,21.30
2018-04-06T18:25:47.264Z,21.40
2018-04-06T18:29:54.172Z,21.40
2018-04-06T18:34:00.068Z,21.10
2018-04-06T18:38:06.340Z,21.30
2018-04-06T18:42:12.319Z,21.50
2018-04-06T18:46:18.052Z,21.60
2018-04-06T18:50:25.232Z,22.00
2018-04-06T18:54:31.154Z,22.00
2018-04-06T18:58:37.157Z,22.00
2018-04-06T19:02:43.355Z,22.20
2018-04-06T19:06:49.120Z,22.20
2018-04-06T19:10:56.095Z,22.50
2018-04-06T19:15:02.949Z,22.40
2018-04-06T19:19:09.084Z,22.40
2018-04-06T19:23:15.272Z,22.40
2018-04-06T19:27:21.440Z,22.60
2018-04-06T19:31:28.768Z,22.60
2018-04-06T19:35:34.595Z,22.80
2018-04-06T19:39:40.342Z,23.00
2018-04-06T19:43:46.279Z,22.90
2018-04-06T19:47:51.827Z,22.90
2018-04-06T19:51:59.683Z,23.00
2018-04-06T19:56:05.514Z,23.00
2018-04-06T20:00:11.297Z,23.10
2018-04-06T20:04:16.977Z,23.30
2018-04-06T20:08:23.264Z,23.50
2018-04-06T20:12:29.732Z,23.40
2018-04-06T20:16:35.756Z,23.60
2018-04-06T20:20:41.374Z,23.50
2018-04-06T20:24:47.541Z,23.80
2018-04-06T20:28:53.561Z,23.50
2018-04-06T20:33:01.342Z,23.60
2018-04-06T20:37:08.052Z,23.50
2018-04-06T20:41:18.004Z,23.60
2018-04-06T20:45:24.063Z,23.60
2018-04-06T20:49:30.539Z,23.50
2018-04-06T20:53:37.605Z,23.50
2018-04-06T20:57:44.998Z,23.50
2018-04-06T21:01:50.913Z,23.60
2018-04-06T21:05:57.380Z,23.50
2018-04-06T21:10:03.395Z,23.50
2018-04-06T21:14:09.566Z,23.70
2018-04-06T21:18:16.190Z,23.70
2018-04-06T21:22:22.240Z,23.70
2018-04-06T21:26:27.982Z,23.80
2018-04-06T21:30:33.735Z,24.10
2018-04-06T21:34:40.523Z,24.10
2018-04-06T21:38:46.319Z,24.10
2018-04-06T21:42:52.243Z,24.10
2018-04-06T21:46:58.193Z,24.00
2018-04-06T21:51:05.090Z,24.00
2018-04-06T21:55:11.133Z,24.00
2018-04-06T21:59:17.083Z,24.10
2018-04-06T22:03:23.180Z,24.30
2018-04-06T22:07:29.327Z,24.40
2018-04-06T22:11:35.932Z,24.60
2018-04-06T22:15:43.467Z,24.70
2018-04-06T22:19:49.404Z,24.70
2018-04-06T22:23:55.130Z,24.70
2018-04-06T22:28:00.967Z,24.70
2018-04-06T22:32:07.636Z,24.70
2018-04-06T22:36:14.762Z,24.70
2018-04-06T22:40:21.089Z,24.70
2018-04-06T22:44:26.939Z,24.80
2018-04-06T22:48:33.111Z,24.60
2018-04-06T22:52:40.006Z,24.40
2018-04-06T22:56:47.303Z,24.40
2018-04-06T23:00:54.065Z,24.40
2018-04-06T23:05:00.644Z,24.40
2018-04-06T23:09:07.198Z,24.50
2018-04-06T23:13:13.008Z,24.40
2018-04-06T23:17:18.954Z,24.40
2018-04-06T23:21:25.217Z,24.30
2018-04-06T23:25:35.165Z,24.20
2018-04-06T23:29:41.143Z,24.00
2018-04-06T23:33:47.054Z,23.80
2018-04-06T23:37:53.968Z,23.70
2018-04-06T23:41:59.819Z,23.70
2018-04-06T23:46:05.998Z,23.70
2018-04-06T23:50:11.561Z,23.70
2018-04-06T23:54:17.562Z,23.60
2018-04-06T23:58:23.337Z,23.40
